Time;durP1;ratioP1;P1;durP2;ratioP2;P2;SDS_P1;SDS_P2;PMS_P1;PMS_P2;Temp;Humidity;BMP_temperature;BMP_pressure;BME280_temperature;BME280_humidity;BME280_pressure;Samples;Min_cycle;Max_cycle;Signal;HPM_P1;HPM_P2
2022/08/28 00:02:13;;;;;;;10.83;3.80;;;;;;;;;;5090120;28;20630;-51
2022/08/28 00:04:39;;;;;;;6.93;3.67;;;;;;;;;;5089982;28;20618;-51
2022/08/28 00:07:05;;;;;;;9.13;3.93;;;;;;;;;;5090568;28;20264;-51
2022/08/28 00:09:32;;;;;;;10.27;4.33;;;;;;;;;;5092752;28;20310;-51
2022/08/28 00:11:58;;;;;;;13.07;5.57;;;;;;;;;;5093846;28;20203;-51
2022/08/28 00:14:24;;;;;;;8.23;4.17;;;;;;;;;;5094385;28;20259;-49
2022/08/28 00:16:51;;;;;;;10.27;3.90;;;;;;;;;;5094042;28;20199;-51
2022/08/28 00:19:18;;;;;;;7.63;3.47;;;;;;;;;;5093838;28;20249;-49
2022/08/28 00:21:45;;;;;;;8.63;4.10;;;;;;;;;;5091598;28;20241;-50
2022/08/28 00:24:11;;;;;;;8.40;4.00;;;;;;;;;;5094396;28;20289;-50
2022/08/28 00:29:22;;;;;;;8.83;4.07;;;;;;;;;;5093379;28;20276;-49
2022/08/28 00:31:48;;;;;;;7.13;3.60;;;;;;;;;;5092094;28;20560;-50
2022/08/28 00:34:16;;;;;;;10.27;4.10;;;;;;;;;;5094044;28;20203;-49
2022/08/28 00:36:42;;;;;;;9.23;3.97;;;;;;;;;;5091786;28;20640;-48
2022/08/28 00:39:08;;;;;;;9.97;4.37;;;;;;;;;;5093315;28;20186;-49
2022/08/28 00:41:35;;;;;;;4.90;3.40;;;;;;;;;;5091947;28;20203;-48
2022/08/28 00:44:06;;;;;;;8.90;4.27;;;;;;;;;;5093752;28;20198;-49
2022/08/28 00:46:32;;;;;;;11.33;4.20;;;;;;;;;;5093568;28;20196;-50
2022/08/28 00:48:58;;;;;;;6.53;3.73;;;;;;;;;;5093280;28;20320;-50
2022/08/28 00:54:11;;;;;;;9.93;4.50;;;;;;;;;;5093725;28;20206;-50
2022/08/28 00:56:39;;;;;;;8.50;3.70;;;;;;;;;;5093070;28;20203;-49
2022/08/28 00:59:07;;;;;;;9.73;3.87;;;;;;;;;;5092612;28;20190;-50
2022/08/28 01:01:33;;;;;;;8.07;3.80;;;;;;;;;;5093249;28;20256;-49
2022/08/28 01:04:01;;;;;;;8.97;4.00;;;;;;;;;;5093354;28;20879;-49
2022/08/28 01:06:28;;;;;;;9.30;3.70;;;;;;;;;;5092840;28;20234;-49
2022/08/28 01:08:54;;;;;;;7.57;3.87;;;;;;;;;;5092982;28;20199;-49
2022/08/28 01:11:20;;;;;;;8.47;4.33;;;;;;;;;;5093051;28;20199;-50
2022/08/28 01:13:47;;;;;;;17.30;10.83;;;;;;;;;;5093076;28;20201;-49
2022/08/28 01:16:14;;;;;;;11.40;6.80;;;;;;;;;;5092924;28;20218;-49
2022/08/28 01:18:41;;;;;;;7.20;4.10;;;;;;;;;;5093097;28;20614;-50
2022/08/28 01:21:11;;;;;;;6.57;4.23;;;;;;;;;;5093072;28;20199;-49
2022/08/28 01:23:44;;;;;;;9.83;4.53;;;;;;;;;;5093154;28;20252;-49
2022/08/28 01:26:10;;;;;;;8.70;4.73;;;;;;;;;;5093164;28;20207;-48
2022/08/28 01:28:36;;;;;;;9.27;4.30;;;;;;;;;;5092943;28;20272;-49
2022/08/28 01:31:02;;;;;;;7.53;3.67;;;;;;;;;;5093259;28;20296;-50
2022/08/28 01:33:28;;;;;;;8.83;4.20;;;;;;;;;;5092969;28;20196;-49
2022/08/28 01:35:54;;;;;;;9.67;4.27;;;;;;;;;;5092589;28;20202;-49
2022/08/28 01:38:20;;;;;;;8.60;4.53;;;;;;;;;;5092746;28;20231;-49
2022/08/28 01:40:49;;;;;;;14.33;4.63;;;;;;;;;;5092783;28;20219;-49
2022/08/28 01:43:16;;;;;;;9.47;4.40;;;;;;;;;;5092908;28;20199;-49
2022/08/28 01:45:43;;;;;;;7.30;4.37;;;;;;;;;;5092622;28;20210;-49
2022/08/28 01:48:09;;;;;;;12.40;4.33;;;;;;;;;;5092776;28;20195;-49
2022/08/28 01:50:36;;;;;;;11.33;4.70;;;;;;;;;;5092775;28;20262;-50
2022/08/28 01:53:03;;;;;;;9.80;4.50;;;;;;;;;;5092495;28;20297;-48
2022/08/28 01:55:31;;;;;;;11.57;4.40;;;;;;;;;;5092645;28;20220;-49
2022/08/28 01:57:58;;;;;;;7.33;3.87;;;;;;;;;;5092514;28;20229;-49
2022/08/28 02:00:26;;;;;;;6.50;3.87;;;;;;;;;;5092588;28;20234;-49
2022/08/28 02:02:54;;;;;;;8.90;3.97;;;;;;;;;;5092380;28;20198;-48
2022/08/28 02:05:21;;;;;;;7.90;4.40;;;;;;;;;;5092431;28;20721;-49
2022/08/28 02:07:47;;;;;;;6.67;3.70;;;;;;;;;;5092084;28;20708;-49
2022/08/28 02:10:13;;;;;;;7.90;4.30;;;;;;;;;;5092411;28;20280;-49
2022/08/28 02:12:40;;;;;;;10.87;4.07;;;;;;;;;;5092139;28;20195;-50
2022/08/28 02:15:08;;;;;;;10.87;4.40;;;;;;;;;;5091857;28;20279;-50
2022/08/28 02:17:34;;;;;;;10.00;4.83;;;;;;;;;;5092044;28;20203;-49
2022/08/28 02:20:00;;;;;;;7.50;3.80;;;;;;;;;;5092008;28;20213;-50
2022/08/28 02:22:26;;;;;;;7.67;4.30;;;;;;;;;;5091822;28;20191;-48
2022/08/28 02:24:53;;;;;;;7.20;4.10;;;;;;;;;;5091312;28;20649;-49
2022/08/28 02:27:18;;;;;;;9.60;4.47;;;;;;;;;;5092005;28;20201;-49
2022/08/28 02:29:46;;;;;;;7.77;3.73;;;;;;;;;;5090940;28;20223;-49
2022/08/28 02:32:13;;;;;;;8.20;3.73;;;;;;;;;;5092028;28;20195;-49
2022/08/28 02:34:40;;;;;;;9.07;4.10;;;;;;;;;;5092240;28;20206;-50
2022/08/28 02:37:07;;;;;;;6.83;3.70;;;;;;;;;;5092156;28;20199;-50
2022/08/28 02:39:33;;;;;;;7.97;3.97;;;;;;;;;;5092118;28;20277;-49
2022/08/28 02:42:00;;;;;;;8.30;4.47;;;;;;;;;;5092123;28;20202;-49
2022/08/28 02:44:26;;;;;;;10.17;4.20;;;;;;;;;;5092093;28;20244;-50
2022/08/28 02:46:52;;;;;;;10.27;4.50;;;;;;;;;;5091417;28;20206;-49
2022/08/28 02:49:19;;;;;;;14.37;9.27;;;;;;;;;;5092038;28;20222;-50
2022/08/28 02:51:45;;;;;;;9.47;6.03;;;;;;;;;;5090969;28;20221;-49
2022/08/28 02:54:11;;;;;;;7.23;4.17;;;;;;;;;;5091788;28;20837;-48
2022/08/28 02:56:37;;;;;;;10.63;4.13;;;;;;;;;;5091524;28;20199;-49
2022/08/28 02:59:03;;;;;;;8.33;4.47;;;;;;;;;;5091710;28;20606;-50
2022/08/28 03:01:29;;;;;;;8.10;4.03;;;;;;;;;;5091832;28;20301;-49
2022/08/28 03:03:56;;;;;;;9.80;3.90;;;;;;;;;;5091446;28;20206;-49
2022/08/28 03:06:23;;;;;;;12.93;4.50;;;;;;;;;;5091010;28;20316;-48
2022/08/28 03:08:49;;;;;;;8.70;3.90;;;;;;;;;;5091733;28;20207;-50
2022/08/28 03:11:15;;;;;;;6.43;3.90;;;;;;;;;;5091069;28;20236;-50
2022/08/28 03:13:41;;;;;;;9.33;4.00;;;;;;;;;;5090341;28;20198;-49
2022/08/28 03:16:07;;;;;;;11.87;8.23;;;;;;;;;;5091389;28;20252;-49
2022/08/28 03:18:33;;;;;;;10.20;5.40;;;;;;;;;;5091577;28;20191;-50
2022/08/28 03:21:00;;;;;;;9.07;3.77;;;;;;;;;;5091598;28;20246;-49
2022/08/28 03:23:27;;;;;;;10.53;4.30;;;;;;;;;;5091414;28;20658;-49
2022/08/28 03:25:55;;;;;;;9.83;4.43;;;;;;;;;;5091335;28;20226;-49
2022/08/28 03:28:21;;;;;;;9.77;4.37;;;;;;;;;;5091645;28;20274;-48
2022/08/28 03:30:48;;;;;;;8.87;3.90;;;;;;;;;;5091393;28;20218;-49
2022/08/28 03:33:14;;;;;;;6.90;4.00;;;;;;;;;;5091623;28;20206;-48
2022/08/28 03:35:40;;;;;;;8.20;3.97;;;;;;;;;;5091387;28;20248;-49
2022/08/28 03:38:06;;;;;;;6.93;3.93;;;;;;;;;;5091522;28;20186;-49
2022/08/28 03:40:37;;;;;;;9.90;4.37;;;;;;;;;;5093368;28;20214;-49
2022/08/28 03:43:03;;;;;;;9.73;4.37;;;;;;;;;;5095540;28;20206;-48
2022/08/28 03:45:29;;;;;;;10.77;4.30;;;;;;;;;;5095498;28;20581;-49
2022/08/28 03:47:55;;;;;;;6.87;4.13;;;;;;;;;;5095442;28;20240;-49
2022/08/28 03:50:21;;;;;;;7.47;3.87;;;;;;;;;;5095245;28;20223;-49
2022/08/28 03:52:47;;;;;;;6.33;4.20;;;;;;;;;;5095318;28;20203;-48
2022/08/28 03:55:14;;;;;;;8.20;4.53;;;;;;;;;;5095452;28;20194;-48
2022/08/28 03:57:41;;;;;;;7.40;4.07;;;;;;;;;;5095174;28;20193;-49
2022/08/28 04:00:09;;;;;;;10.97;4.10;;;;;;;;;;5095384;28;20191;-48
2022/08/28 04:02:35;;;;;;;9.70;4.40;;;;;;;;;;5095232;28;20198;-49
2022/08/28 04:05:01;;;;;;;7.37;4.33;;;;;;;;;;5095126;28;20195;-48
2022/08/28 04:07:27;;;;;;;7.60;4.30;;;;;;;;;;5094959;28;20234;-49
2022/08/28 04:09:53;;;;;;;9.13;4.17;;;;;;;;;;5094819;28;20218;-49
2022/08/28 04:12:19;;;;;;;11.33;4.60;;;;;;;;;;5095006;28;20191;-49
2022/08/28 04:14:48;;;;;;;10.37;4.80;;;;;;;;;;5094797;28;20673;-49
2022/08/28 04:17:14;;;;;;;10.00;4.20;;;;;;;;;;5093789;28;20202;-49
2022/08/28 04:19:40;;;;;;;6.83;4.40;;;;;;;;;;5094737;28;20687;-48
2022/08/28 04:22:07;;;;;;;7.43;3.60;;;;;;;;;;5094793;28;20202;-49
2022/08/28 04:24:33;;;;;;;9.80;4.70;;;;;;;;;;5094718;28;20226;-49
2022/08/28 04:26:59;;;;;;;8.60;4.20;;;;;;;;;;5094433;28;20230;-49
2022/08/28 04:29:25;;;;;;;8.10;4.20;;;;;;;;;;5094528;28;20210;-48
2022/08/28 04:31:52;;;;;;;6.83;4.17;;;;;;;;;;5094494;28;20194;-49
2022/08/28 04:34:18;;;;;;;7.27;4.50;;;;;;;;;;5094266;28;20222;-49
2022/08/28 04:36:45;;;;;;;9.47;4.77;;;;;;;;;;5094442;28;20222;-49
2022/08/28 04:39:11;;;;;;;10.03;4.13;;;;;;;;;;5093782;28;20301;-48
2022/08/28 04:41:37;;;;;;;8.50;4.07;;;;;;;;;;5094437;28;20199;-48
2022/08/28 04:44:04;;;;;;;10.33;4.73;;;;;;;;;;5094253;28;20240;-48
2022/08/28 04:46:30;;;;;;;7.33;3.93;;;;;;;;;;5094482;28;20252;-48
2022/08/28 04:48:57;;;;;;;7.10;4.37;;;;;;;;;;5094209;28;20203;-49
2022/08/28 04:51:23;;;;;;;6.43;4.17;;;;;;;;;;5093325;28;20227;-49
2022/08/28 04:53:49;;;;;;;8.43;4.63;;;;;;;;;;5094005;28;20302;-49
2022/08/28 04:56:15;;;;;;;7.00;4.10;;;;;;;;;;5093993;28;20191;-49
2022/08/28 04:58:42;;;;;;;9.87;4.40;;;;;;;;;;5094044;28;20676;-49
2022/08/28 05:01:09;;;;;;;5.70;3.83;;;;;;;;;;5093799;28;20653;-50
2022/08/28 05:03:35;;;;;;;7.17;3.70;;;;;;;;;;5094105;28;20245;-49
2022/08/28 05:06:03;;;;;;;7.43;4.10;;;;;;;;;;5093822;28;20203;-49
2022/08/28 05:08:30;;;;;;;7.87;3.73;;;;;;;;;;5093891;28;20223;-49
2022/08/28 05:10:56;;;;;;;8.33;4.17;;;;;;;;;;5093701;28;20424;-49
2022/08/28 05:13:23;;;;;;;10.20;4.57;;;;;;;;;;5093925;28;20270;-48
2022/08/28 05:15:50;;;;;;;8.13;4.17;;;;;;;;;;5093714;28;20203;-48
2022/08/28 05:18:17;;;;;;;8.40;3.97;;;;;;;;;;5093834;28;20203;-48
2022/08/28 05:20:45;;;;;;;6.50;3.80;;;;;;;;;;5093768;28;20209;-48
2022/08/28 05:23:13;;;;;;;7.67;3.57;;;;;;;;;;5093544;28;20191;-48
2022/08/28 05:25:41;;;;;;;8.60;4.33;;;;;;;;;;5093591;28;20202;-49
2022/08/28 05:28:08;;;;;;;7.73;3.87;;;;;;;;;;5093354;28;20320;-48
2022/08/28 05:30:36;;;;;;;7.73;4.30;;;;;;;;;;5093552;28;20231;-49
2022/08/28 05:33:02;;;;;;;9.10;3.60;;;;;;;;;;5093428;28;20273;-48
2022/08/28 05:35:28;;;;;;;10.20;4.50;;;;;;;;;;5093303;28;20669;-48
2022/08/28 05:37:54;;;;;;;7.57;3.30;;;;;;;;;;5092906;28;20270;-49
2022/08/28 05:40:21;;;;;;;9.80;4.37;;;;;;;;;;5092570;28;20290;-49
2022/08/28 05:42:47;;;;;;;9.70;3.80;;;;;;;;;;5093295;28;20563;-47
2022/08/28 05:45:13;;;;;;;7.10;3.60;;;;;;;;;;5093271;28;20199;-49
2022/08/28 05:47:39;;;;;;;8.60;3.77;;;;;;;;;;5093177;28;20199;-48
2022/08/28 05:50:06;;;;;;;8.63;3.93;;;;;;;;;;5092846;28;20557;-49
2022/08/28 05:52:33;;;;;;;9.27;4.00;;;;;;;;;;5092959;28;20668;-47
2022/08/28 05:55:00;;;;;;;13.73;3.73;;;;;;;;;;5092646;28;20231;-48
2022/08/28 05:57:28;;;;;;;9.50;3.47;;;;;;;;;;5092946;28;20223;-48
2022/08/28 05:59:54;;;;;;;7.90;3.67;;;;;;;;;;5092987;28;20199;-49
2022/08/28 06:02:20;;;;;;;6.93;3.43;;;;;;;;;;5092620;28;20221;-49
2022/08/28 06:04:47;;;;;;;12.47;4.10;;;;;;;;;;5092622;28;20195;-48
2022/08/28 06:07:14;;;;;;;10.23;3.40;;;;;;;;;;5090492;28;20701;-50
2022/08/28 06:09:40;;;;;;;6.60;3.73;;;;;;;;;;5092417;28;20223;-49
2022/08/28 06:12:07;;;;;;;5.33;2.70;;;;;;;;;;5092064;28;20219;-50
2022/08/28 06:14:34;;;;;;;9.00;3.07;;;;;;;;;;5092255;28;20637;-49
2022/08/28 06:17:01;;;;;;;5.00;2.67;;;;;;;;;;5090320;28;20195;-49
2022/08/28 06:19:28;;;;;;;8.50;2.93;;;;;;;;;;5092178;28;20206;-49
2022/08/28 06:21:55;;;;;;;7.30;3.20;;;;;;;;;;5090207;28;20881;-49
2022/08/28 06:24:21;;;;;;;8.00;2.87;;;;;;;;;;5090219;28;20577;-49
2022/08/28 06:26:47;;;;;;;7.03;2.90;;;;;;;;;;5091847;28;20228;-50
2022/08/28 06:29:14;;;;;;;7.03;3.20;;;;;;;;;;5090367;28;20199;-50
2022/08/28 06:31:42;;;;;;;7.40;3.47;;;;;;;;;;5092171;28;20633;-50
2022/08/28 06:34:08;;;;;;;7.73;3.87;;;;;;;;;;5092293;28;20619;-49
2022/08/28 06:36:36;;;;;;;6.97;3.30;;;;;;;;;;5089207;28;20223;-50
2022/08/28 06:39:03;;;;;;;8.10;3.70;;;;;;;;;;5091884;28;20188;-49
2022/08/28 06:41:30;;;;;;;7.80;3.07;;;;;;;;;;5091881;28;20688;-49
2022/08/28 06:43:57;;;;;;;10.13;3.30;;;;;;;;;;5091582;28;20196;-49
2022/08/28 06:46:23;;;;;;;7.27;3.50;;;;;;;;;;5091147;28;20540;-51
2022/08/28 06:48:51;;;;;;;9.93;3.27;;;;;;;;;;5091168;28;20952;-49
2022/08/28 06:51:17;;;;;;;6.07;3.07;;;;;;;;;;5091446;28;20299;-49
2022/08/28 06:53:44;;;;;;;6.93;3.00;;;;;;;;;;5091510;28;20230;-49
2022/08/28 06:56:12;;;;;;;6.83;2.70;;;;;;;;;;5091256;28;20622;-50
2022/08/28 06:58:39;;;;;;;7.50;3.30;;;;;;;;;;5091372;28;20220;-49
2022/08/28 07:01:07;;;;;;;8.67;3.40;;;;;;;;;;5091050;28;20280;-50
2022/08/28 07:03:33;;;;;;;5.50;2.90;;;;;;;;;;5091465;28;20198;-49
2022/08/28 07:06:03;;;;;;;10.60;3.43;;;;;;;;;;5090964;28;20296;-50
2022/08/28 07:08:29;;;;;;;7.97;3.30;;;;;;;;;;5090207;28;20232;-50
2022/08/28 07:10:55;;;;;;;8.57;2.80;;;;;;;;;;5090991;28;20260;-49
2022/08/28 07:13:21;;;;;;;7.50;2.83;;;;;;;;;;5090855;28;20241;-50
2022/08/28 07:15:47;;;;;;;7.10;2.93;;;;;;;;;;5087333;28;20198;-50
2022/08/28 07:18:14;;;;;;;9.10;4.63;;;;;;;;;;5094022;28;20200;-49
2022/08/28 07:20:40;;;;;;;7.03;3.97;;;;;;;;;;5109729;28;20227;-50
2022/08/28 07:23:07;;;;;;;6.00;2.60;;;;;;;;;;5109493;28;20225;-49
2022/08/28 07:25:33;;;;;;;6.13;2.63;;;;;;;;;;5111599;28;20205;-53
2022/08/28 07:27:59;;;;;;;10.70;3.17;;;;;;;;;;5109748;28;20205;-53
2022/08/28 07:30:25;;;;;;;7.20;3.13;;;;;;;;;;5109073;28;20222;-50
2022/08/28 07:32:52;;;;;;;7.05;3.00;;;;;;;;;;5106083;28;20762;-50
2022/08/28 07:35:19;;;;;;;7.60;3.13;;;;;;;;;;5109556;28;20403;-51
2022/08/28 07:37:45;;;;;;;4.57;2.60;;;;;;;;;;5108839;28;20392;-50
2022/08/28 07:40:13;;;;;;;5.50;2.47;;;;;;;;;;5100696;28;20224;-50
2022/08/28 07:45:24;;;;;;;6.20;2.93;;;;;;;;;;5087294;28;20215;-51
2022/08/28 07:47:50;;;;;;;7.03;2.80;;;;;;;;;;5090439;28;20281;-51
2022/08/28 07:50:16;;;;;;;6.17;2.90;;;;;;;;;;5087058;28;20241;-50
2022/08/28 07:52:42;;;;;;;7.97;4.57;;;;;;;;;;5090821;28;20261;-50
2022/08/28 07:55:08;;;;;;;8.10;2.53;;;;;;;;;;5090880;28;20204;-50
2022/08/28 07:57:36;;;;;;;5.20;2.70;;;;;;;;;;5091168;28;20219;-51
2022/08/28 08:00:02;;;;;;;7.10;2.70;;;;;;;;;;5091056;28;20183;-51
2022/08/28 08:02:28;;;;;;;6.17;2.63;;;;;;;;;;5091248;28;20684;-50
2022/08/28 08:04:55;;;;;;;9.10;3.13;;;;;;;;;;5090995;28;20252;-51
2022/08/28 08:07:21;;;;;;;4.83;2.07;;;;;;;;;;5090614;28;20250;-51
2022/08/28 08:09:47;;;;;;;3.70;2.13;;;;;;;;;;5090009;28;20685;-50
2022/08/28 08:12:14;;;;;;;7.77;2.83;;;;;;;;;;5090625;28;20225;-50
2022/08/28 08:14:42;;;;;;;9.23;2.70;;;;;;;;;;5090741;28;20638;-50
2022/08/28 08:17:09;;;;;;;5.43;2.70;;;;;;;;;;5090873;28;20256;-50
2022/08/28 08:19:35;;;;;;;5.77;2.63;;;;;;;;;;5090892;28;20256;-50
2022/08/28 08:22:01;;;;;;;5.53;2.70;;;;;;;;;;5090979;28;20192;-50
2022/08/28 08:24:29;;;;;;;7.27;2.40;;;;;;;;;;5091032;28;20209;-51
2022/08/28 08:26:56;;;;;;;5.93;2.57;;;;;;;;;;5091677;28;20195;-51
2022/08/28 08:29:23;;;;;;;5.87;2.47;;;;;;;;;;5094829;28;20271;-50
2022/08/28 08:31:56;;;;;;;6.00;3.30;;;;;;;;;;5094699;28;20202;-50
2022/08/28 08:34:22;;;;;;;7.50;2.97;;;;;;;;;;5094548;28;20203;-51
2022/08/28 08:36:48;;;;;;;7.38;2.88;;;;;;;;;;5093309;28;20475;-50
2022/08/28 08:39:14;;;;;;;7.63;2.60;;;;;;;;;;5094236;28;20244;-50
2022/08/28 08:41:47;;;;;;;7.80;2.87;;;;;;;;;;5092629;28;20191;-51
2022/08/28 08:44:18;;;;;;;8.63;2.83;;;;;;;;;;5094104;28;20202;-51
2022/08/28 08:46:46;;;;;;;6.87;3.10;;;;;;;;;;5093243;28;20410;-50
2022/08/28 08:49:15;;;;;;;8.13;2.80;;;;;;;;;;5094531;28;20211;-50
2022/08/28 08:51:43;;;;;;;7.57;2.60;;;;;;;;;;5094499;28;20311;-50
2022/08/28 08:54:10;;;;;;;6.83;2.57;;;;;;;;;;5094361;28;20203;-51
2022/08/28 08:56:37;;;;;;;9.63;2.90;;;;;;;;;;5094428;28;20221;-51
2022/08/28 08:59:07;;;;;;;6.97;2.70;;;;;;;;;;5094296;28;20200;-51
2022/08/28 09:01:36;;;;;;;7.60;2.50;;;;;;;;;;5094349;28;20192;-50
2022/08/28 09:04:03;;;;;;;7.70;2.80;;;;;;;;;;5094117;28;20681;-51
2022/08/28 09:06:35;;;;;;;8.63;2.73;;;;;;;;;;5094114;28;20246;-50
2022/08/28 09:09:06;;;;;;;5.97;2.57;;;;;;;;;;5094078;28;20204;-51
2022/08/28 09:11:40;;;;;;;6.70;2.60;;;;;;;;;;5094161;28;20219;-50
2022/08/28 09:14:12;;;;;;;5.30;2.60;;;;;;;;;;5094265;28;20560;-50
2022/08/28 09:16:40;;;;;;;4.90;2.67;;;;;;;;;;5094195;28;20196;-51
2022/08/28 09:19:07;;;;;;;6.37;2.47;;;;;;;;;;5093911;28;20677;-50
2022/08/28 09:21:37;;;;;;;5.70;2.60;;;;;;;;;;5094061;28;20198;-50
2022/08/28 09:24:05;;;;;;;7.43;2.47;;;;;;;;;;5091578;28;20208;-52
2022/08/28 09:26:31;;;;;;;5.10;2.50;;;;;;;;;;5092919;28;20271;-51
2022/08/28 09:28:59;;;;;;;6.20;2.70;;;;;;;;;;5092858;28;20196;-50
2022/08/28 09:31:30;;;;;;;7.60;2.50;;;;;;;;;;5092231;28;20228;-49
2022/08/28 09:34:16;;;;;;;6.93;3.00;;;;;;;;;;5092257;28;20226;-49
2022/08/28 09:36:43;;;;;;;3.67;2.17;;;;;;;;;;5092716;28;20261;-49
2022/08/28 09:39:11;;;;;;;6.73;2.30;;;;;;;;;;5093147;28;20201;-50
2022/08/28 09:44:24;;;;;;;4.50;2.27;;;;;;;;;;5092828;28;20708;-49
2022/08/28 09:46:51;;;;;;;5.20;2.43;;;;;;;;;;5092916;28;20216;-50
2022/08/28 09:49:23;;;;;;;4.83;2.40;;;;;;;;;;5092849;28;20592;-50
2022/08/28 09:51:50;;;;;;;8.00;2.60;;;;;;;;;;5091737;28;20264;-50
2022/08/28 09:54:20;;;;;;;8.73;2.90;;;;;;;;;;5092326;28;20206;-50
2022/08/28 09:56:47;;;;;;;4.60;2.20;;;;;;;;;;5092749;28;20526;-49
2022/08/28 09:59:14;;;;;;;6.53;2.50;;;;;;;;;;5092458;28;20260;-50
2022/08/28 10:01:47;;;;;;;4.77;2.17;;;;;;;;;;5091963;28;20194;-49
2022/08/28 10:04:25;;;;;;;5.33;2.37;;;;;;;;;;5092652;28;20206;-49
2022/08/28 10:06:54;;;;;;;4.83;2.30;;;;;;;;;;5092515;28;20241;-50
2022/08/28 10:09:24;;;;;;;6.67;2.63;;;;;;;;;;5092732;28;20206;-51
2022/08/28 10:11:54;;;;;;;4.20;2.30;;;;;;;;;;5092362;28;20299;-51
2022/08/28 10:14:28;;;;;;;4.57;2.30;;;;;;;;;;5092409;28;20195;-51
2022/08/28 10:17:00;;;;;;;4.40;2.30;;;;;;;;;;5091152;28;20225;-49
2022/08/28 10:19:33;;;;;;;7.83;2.47;;;;;;;;;;5092330;28;20212;-51
2022/08/28 10:22:07;;;;;;;4.10;2.00;;;;;;;;;;5092011;28;20255;-51
2022/08/28 10:24:40;;;;;;;3.80;2.37;;;;;;;;;;5092703;28;20209;-49
2022/08/28 10:27:12;;;;;;;6.27;2.60;;;;;;;;;;5092272;28;20621;-51
2022/08/28 10:29:47;;;;;;;3.60;2.20;;;;;;;;;;5092272;28;20252;-50
2022/08/28 10:32:20;;;;;;;6.73;2.73;;;;;;;;;;5091827;28;20679;-51
2022/08/28 10:34:52;;;;;;;4.67;2.50;;;;;;;;;;5091989;28;20226;-51
2022/08/28 10:37:22;;;;;;;3.87;2.17;;;;;;;;;;5091393;28;20657;-52
2022/08/28 10:39:50;;;;;;;6.60;2.40;;;;;;;;;;5092323;28;20361;-51
2022/08/28 10:42:19;;;;;;;4.37;2.10;;;;;;;;;;5091855;28;20671;-51
2022/08/28 10:44:49;;;;;;;3.93;2.17;;;;;;;;;;5092019;28;20332;-51
2022/08/28 10:47:17;;;;;;;4.87;2.20;;;;;;;;;;5091268;28;20205;-51
2022/08/28 10:49:44;;;;;;;4.90;2.40;;;;;;;;;;5091290;28;20198;-52
2022/08/28 10:52:12;;;;;;;3.23;2.23;;;;;;;;;;5091871;28;20208;-51
2022/08/28 10:54:42;;;;;;;4.07;2.17;;;;;;;;;;5091941;28;20204;-51
2022/08/28 10:57:14;;;;;;;5.07;2.33;;;;;;;;;;5091836;28;20247;-52
2022/08/28 10:59:41;;;;;;;3.97;2.30;;;;;;;;;;5091782;28;20251;-51
2022/08/28 11:02:10;;;;;;;6.10;2.70;;;;;;;;;;5091403;28;20227;-51
2022/08/28 11:04:36;;;;;;;3.83;2.13;;;;;;;;;;5091747;28;20751;-52
2022/08/28 11:07:05;;;;;;;4.07;2.20;;;;;;;;;;5091489;28;20234;-51
2022/08/28 11:09:34;;;;;;;7.03;2.53;;;;;;;;;;5091872;28;20202;-51
2022/08/28 11:12:02;;;;;;;4.87;2.23;;;;;;;;;;5091384;28;20245;-51
2022/08/28 11:14:30;;;;;;;4.13;2.57;;;;;;;;;;5091766;28;20201;-51
2022/08/28 11:16:57;;;;;;;4.47;2.10;;;;;;;;;;5091750;28;20189;-51
2022/08/28 11:19:51;;;;;;;5.80;2.40;;;;;;;;;;5091639;28;20202;-51
2022/08/28 11:22:18;;;;;;;3.90;2.30;;;;;;;;;;5091591;28;20209;-50
2022/08/28 11:24:46;;;;;;;5.47;2.43;;;;;;;;;;5091717;28;20310;-50
2022/08/28 11:27:19;;;;;;;5.67;2.57;;;;;;;;;;5091473;28;20193;-51
2022/08/28 11:30:00;;;;;;;5.33;1.93;;;;;;;;;;5091284;28;20573;-50
2022/08/28 11:32:34;;;;;;;4.43;2.20;;;;;;;;;;5091286;28;20197;-51
2022/08/28 11:35:02;;;;;;;8.60;2.50;;;;;;;;;;5091391;28;20575;-51
2022/08/28 11:37:37;;;;;;;6.70;2.17;;;;;;;;;;5091440;28;20713;-51
2022/08/28 11:40:15;;;;;;;5.83;2.13;;;;;;;;;;5091371;28;20238;-51
2022/08/28 11:42:47;;;;;;;9.83;2.90;;;;;;;;;;5091286;28;20690;-51
2022/08/28 11:45:17;;;;;;;4.70;2.00;;;;;;;;;;5091466;28;20198;-51
2022/08/28 11:47:50;;;;;;;8.57;2.60;;;;;;;;;;5091545;28;20287;-48
2022/08/28 11:50:21;;;;;;;5.60;2.30;;;;;;;;;;5091696;28;20238;-49
2022/08/28 11:53:06;;;;;;;4.23;2.17;;;;;;;;;;5091701;28;20613;-49
2022/08/28 11:55:39;;;;;;;8.03;2.33;;;;;;;;;;5091994;28;20196;-49
2022/08/28 11:58:12;;;;;;;3.67;2.10;;;;;;;;;;5089955;28;20193;-50
2022/08/28 12:00:50;;;;;;;4.63;2.43;;;;;;;;;;5091330;28;20212;-51
2022/08/28 12:03:24;;;;;;;4.73;2.30;;;;;;;;;;5094334;28;20206;-49
2022/08/28 12:05:52;;;;;;;4.63;2.50;;;;;;;;;;5094609;28;20205;-50
2022/08/28 12:08:36;;;;;;;8.33;2.83;;;;;;;;;;5094741;28;20529;-50
2022/08/28 12:11:02;;;;;;;4.63;2.43;;;;;;;;;;5094282;28;20246;-49
2022/08/28 12:13:44;;;;;;;5.83;2.60;;;;;;;;;;5094426;28;20198;-50
2022/08/28 12:16:11;;;;;;;4.77;3.17;;;;;;;;;;5094452;28;20232;-50
2022/08/28 12:18:58;;;;;;;8.20;2.40;;;;;;;;;;5094694;28;20257;-51
2022/08/28 12:21:27;;;;;;;5.63;2.50;;;;;;;;;;5089628;28;20255;-50
2022/08/28 12:24:01;;;;;;;9.57;2.67;;;;;;;;;;5094428;28;20259;-51
2022/08/28 12:26:28;;;;;;;7.20;2.93;;;;;;;;;;5094598;28;20203;-48
2022/08/28 12:28:57;;;;;;;5.50;2.50;;;;;;;;;;5094624;28;20201;-47
2022/08/28 12:34:24;;;;;;;6.23;2.60;;;;;;;;;;5094035;28;20281;-51
2022/08/28 12:36:55;;;;;;;6.27;2.60;;;;;;;;;;5093606;28;20196;-50
2022/08/28 12:39:22;;;;;;;5.27;2.40;;;;;;;;;;5094173;28;20204;-49
2022/08/28 12:41:48;;;;;;;4.03;2.10;;;;;;;;;;5094009;28;20197;-50
2022/08/28 12:44:15;;;;;;;4.63;2.57;;;;;;;;;;5094069;28;20205;-51
2022/08/28 12:46:42;;;;;;;4.80;2.13;;;;;;;;;;5091552;28;20202;-51
2022/08/28 12:49:23;;;;;;;6.13;2.70;;;;;;;;;;5093784;28;20212;-50
2022/08/28 12:51:52;;;;;;;5.93;2.77;;;;;;;;;;5092291;28;20233;-50
2022/08/28 12:54:18;;;;;;;4.27;2.60;;;;;;;;;;5092880;28;20197;-51
2022/08/28 12:56:44;;;;;;;7.13;2.53;;;;;;;;;;5093555;28;20207;-49
2022/08/28 12:59:24;;;;;;;5.40;2.63;;;;;;;;;;5093849;28;20375;-51
2022/08/28 13:01:50;;;;;;;7.50;2.77;;;;;;;;;;5090226;28;20205;-50
2022/08/28 13:04:24;;;;;;;6.57;2.67;;;;;;;;;;5093399;28;20228;-51
2022/08/28 13:06:57;;;;;;;5.23;3.67;;;;;;;;;;5091088;28;20251;-51
2022/08/28 13:09:25;;;;;;;8.30;3.40;;;;;;;;;;5092167;28;20195;-51
2022/08/28 13:11:51;;;;;;;5.67;3.77;;;;;;;;;;5090978;28;20241;-50
2022/08/28 13:14:32;;;;;;;10.07;3.47;;;;;;;;;;5092300;28;20226;-51
2022/08/28 13:16:59;;;;;;;5.47;2.70;;;;;;;;;;5092749;28;20191;-50
2022/08/28 13:19:27;;;;;;;5.57;3.60;;;;;;;;;;5092962;28;20620;-51
2022/08/28 13:21:57;;;;;;;4.27;3.17;;;;;;;;;;5090466;28;20191;-51
2022/08/28 13:24:26;;;;;;;4.80;2.57;;;;;;;;;;5092230;28;20738;-50
2022/08/28 13:26:59;;;;;;;5.73;2.90;;;;;;;;;;5091335;28;20200;-51
2022/08/28 13:29:25;;;;;;;5.73;2.90;;;;;;;;;;5092634;28;20199;-50
2022/08/28 13:31:55;;;;;;;5.33;3.10;;;;;;;;;;5092172;28;20236;-49
2022/08/28 13:34:24;;;;;;;6.43;4.30;;;;;;;;;;5089885;28;20669;-50
2022/08/28 13:36:51;;;;;;;5.83;2.80;;;;;;;;;;5093062;28;20215;-51
2022/08/28 13:39:18;;;;;;;3.50;2.40;;;;;;;;;;5092166;28;20272;-49
2022/08/28 13:41:45;;;;;;;3.43;2.57;;;;;;;;;;5092574;28;20196;-49
2022/08/28 13:44:20;;;;;;;5.83;2.93;;;;;;;;;;5092855;28;20736;-50
2022/08/28 13:46:46;;;;;;;3.73;2.83;;;;;;;;;;5090793;28;20273;-51
2022/08/28 13:49:12;;;;;;;4.90;3.20;;;;;;;;;;5087496;28;20662;-49
2022/08/28 13:51:39;;;;;;;6.37;3.33;;;;;;;;;;5112044;28;20270;-49
2022/08/28 13:54:05;;;;;;;4.00;3.20;;;;;;;;;;5111198;28;20196;-50
2022/08/28 13:56:31;;;;;;;12.33;3.27;;;;;;;;;;5112720;28;20247;-49
2022/08/28 13:58:57;;;;;;;12.03;3.27;;;;;;;;;;5112616;28;20211;-49
2022/08/28 14:03:34;;;;;;;5.10;3.27;;;;;;;;;;5105167;28;20278;-49
2022/08/28 14:04:10;;;;;;;4.40;2.57;;;;;;;;;;5089426;28;20287;-49
2022/08/28 14:06:36;;;;;;;4.73;2.43;;;;;;;;;;5092084;28;20235;-48
2022/08/28 14:09:03;;;;;;;5.33;2.63;;;;;;;;;;5090193;28;20199;-49
2022/08/28 14:11:30;;;;;;;7.47;6.30;;;;;;;;;;5090247;28;20758;-47
2022/08/28 14:13:56;;;;;;;4.63;3.93;;;;;;;;;;5092164;28;20203;-48
2022/08/28 14:16:22;;;;;;;8.13;3.27;;;;;;;;;;5090349;28;20254;-48
2022/08/28 14:18:51;;;;;;;5.67;2.70;;;;;;;;;;5092075;28;20281;-49
2022/08/28 14:21:18;;;;;;;6.10;2.60;;;;;;;;;;5090358;28;20199;-49
2022/08/28 14:23:44;;;;;;;9.30;4.10;;;;;;;;;;5091914;28;20194;-49
2022/08/28 14:26:11;;;;;;;7.03;5.13;;;;;;;;;;5091111;28;20613;-49
2022/08/28 14:28:37;;;;;;;5.97;2.67;;;;;;;;;;5089989;28;20197;-49
2022/08/28 14:31:05;;;;;;;4.47;3.43;;;;;;;;;;5089774;28;20218;-49
2022/08/28 14:33:31;;;;;;;4.87;2.90;;;;;;;;;;5091324;28;20213;-47
2022/08/28 14:35:57;;;;;;;5.07;2.57;;;;;;;;;;5089473;28;20208;-47
2022/08/28 14:38:23;;;;;;;8.07;5.77;;;;;;;;;;5091102;28;20225;-47
2022/08/28 14:40:49;;;;;;;4.77;2.77;;;;;;;;;;5091409;28;20245;-48
2022/08/28 14:43:17;;;;;;;6.67;5.27;;;;;;;;;;5089135;28;20206;-47
2022/08/28 14:45:44;;;;;;;6.77;3.00;;;;;;;;;;5091157;28;20205;-48
2022/08/28 14:48:10;;;;;;;5.53;3.33;;;;;;;;;;5091379;28;20206;-47
2022/08/28 14:50:38;;;;;;;4.03;3.13;;;;;;;;;;5091450;28;20226;-48
2022/08/28 14:53:04;;;;;;;4.80;2.93;;;;;;;;;;5091744;28;20206;-48
2022/08/28 14:55:30;;;;;;;4.80;3.00;;;;;;;;;;5091056;28;20214;-48
2022/08/28 14:57:56;;;;;;;3.80;2.40;;;;;;;;;;5091566;28;20252;-48
2022/08/28 15:00:23;;;;;;;7.13;6.43;;;;;;;;;;5091417;28;20614;-48